Time;durP1;ratioP1;P1;durP2;ratioP2;P2;SDS_P1;SDS_P2;PMS_P1;PMS_P2;Temp;Humidity;BMP_temperature;BMP_pressure;BME280_temperature;BME280_humidity;BME280_pressure;Samples;Min_cycle;Max_cycle;Signal;HPM_P1;HPM_P2
2023/06/26 00:00:32;;;;;;;;;;;;;;;30.77;28.87;98212.88;5052812;28;19921;-89
2023/06/26 00:02:58;;;;;;;;;;;;;;;30.39;29.02;98218.31;5045596;28;19960;-88
2023/06/26 00:05:24;;;;;;;;;;;;;;;30.11;29.15;98216.72;5043949;28;19961;-89
2023/06/26 00:07:50;;;;;;;;;;;;;;;30.23;28.97;98215.78;5047394;28;19929;-89
2023/06/26 00:10:16;;;;;;;;;;;;;;;30.31;28.93;98225.53;5049640;28;20368;-89
2023/06/26 00:12:42;;;;;;;;;;;;;;;30.45;28.54;98218.47;5053887;28;19917;-88
2023/06/26 00:15:08;;;;;;;;;;;;;;;30.53;28.43;98216.88;5047094;28;20377;-89
2023/06/26 00:17:37;;;;;;;;;;;;;;;30.58;28.93;98219.84;5040584;28;20426;-89
2023/06/26 00:20:05;;;;;;;;;;;;;;;30.49;28.89;98213.41;5042450;28;19979;-88
2023/06/26 00:22:31;;;;;;;;;;;;;;;30.47;29.13;98222.41;5043323;28;19928;-88
2023/06/26 00:24:57;;;;;;;;;;;;;;;30.45;29.44;98216.44;5045154;28;19921;-88
2023/06/26 00:27:23;;;;;;;;;;;;;;;30.51;28.33;98214.50;5050401;28;19928;-88
2023/06/26 00:29:49;;;;;;;;;;;;;;;30.46;28.38;98209.47;5022169;28;19944;-90
2023/06/26 00:32:15;;;;;;;;;;;;;;;30.42;28.95;98213.75;5044155;28;20331;-89
2023/06/26 00:34:41;;;;;;;;;;;;;;;30.49;28.86;98216.25;5040662;28;19947;-88
2023/06/26 00:37:07;;;;;;;;;;;;;;;30.55;28.55;98215.13;5037257;28;19964;-88
2023/06/26 00:39:33;;;;;;;;;;;;;;;30.44;28.47;98214.84;5050674;28;20487;-89
2023/06/26 00:41:59;;;;;;;;;;;;;;;30.16;29.17;98215.31;5049240;28;20438;-89
2023/06/26 00:44:25;;;;;;;;;;;;;;;30.18;28.73;98218.47;5045828;28;19928;-89
2023/06/26 00:46:51;;;;;;;;;;;;;;;30.19;28.69;98208.69;5034217;28;19922;-89
2023/06/26 00:49:18;;;;;;;;;;;;;;;30.25;28.84;98218.91;5044216;28;19994;-88
2023/06/26 00:51:44;;;;;;;;;;;;;;;30.31;28.87;98216.25;5044872;28;19921;-88
2023/06/26 00:54:10;;;;;;;;;;;;;;;30.18;28.99;98212.81;5044682;28;20012;-88
2023/06/26 00:56:36;;;;;;;;;;;;;;;30.25;28.44;98209.63;5041645;28;20368;-89
2023/06/26 00:59:02;;;;;;;;;;;;;;;30.06;28.95;98212.47;5044339;28;19921;-88
2023/06/26 01:01:28;;;;;;;;;;;;;;;29.94;29.26;98215.47;5040858;28;19963;-88
2023/06/26 01:03:54;;;;;;;;;;;;;;;30.00;28.91;98217.19;5050698;28;19979;-88
2023/06/26 01:06:22;;;;;;;;;;;;;;;29.81;29.37;98206.31;5048835;28;19921;-87
2023/06/26 01:08:48;;;;;;;;;;;;;;;29.89;29.22;98213.25;5044771;28;19936;-88
2023/06/26 01:11:15;;;;;;;;;;;;;;;30.03;29.16;98206.97;5043687;28;19921;-88
2023/06/26 01:13:43;;;;;;;;;;;;;;;29.94;28.68;98204.16;5043211;28;19913;-88
2023/06/26 01:16:10;;;;;;;;;;;;;;;29.99;28.87;98203.53;5052253;28;19920;-88
2023/06/26 01:18:37;;;;;;;;;;;;;;;30.01;28.45;98206.66;5043625;28;20362;-89
2023/06/26 01:21:04;;;;;;;;;;;;;;;29.98;28.73;98197.06;5033382;28;19917;-89
2023/06/26 01:23:36;;;;;;;;;;;;;;;30.00;28.90;98202.25;5041179;28;19921;-89
2023/06/26 01:26:19;;;;;;;;;;;;;;;29.91;28.44;98194.56;5041129;28;20356;-89
2023/06/26 01:28:46;;;;;;;;;;;;;;;29.79;28.68;98198.31;5046510;28;19924;-89
2023/06/26 01:31:13;;;;;;;;;;;;;;;29.86;28.46;98198.00;5043530;28;20300;-89
2023/06/26 01:33:40;;;;;;;;;;;;;;;29.78;28.36;98195.97;5046035;28;20391;-89
2023/06/26 01:36:06;;;;;;;;;;;;;;;29.83;28.14;98193.28;5047698;28;19929;-90
2023/06/26 01:38:32;;;;;;;;;;;;;;;29.83;28.25;98190.44;5046146;28;19935;-90
2023/06/26 01:40:58;;;;;;;;;;;;;;;29.27;29.03;98190.78;5045948;28;20007;-90
2023/06/26 01:43:29;;;;;;;;;;;;;;;29.14;29.59;98192.91;5047124;28;19972;-90
2023/06/26 01:45:59;;;;;;;;;;;;;;;29.32;29.36;98187.34;5045375;28;19960;-89
2023/06/26 01:48:30;;;;;;;;;;;;;;;29.45;28.90;98189.25;5052070;28;19925;-88
2023/06/26 01:50:58;;;;;;;;;;;;;;;29.52;28.70;98194.63;5044852;28;20019;-89
2023/06/26 01:53:29;;;;;;;;;;;;;;;29.55;28.62;98190.84;5049627;28;20361;-90
2023/06/26 01:56:00;;;;;;;;;;;;;;;29.47;28.79;98189.59;5053423;28;19991;-89
2023/06/26 01:58:27;;;;;;;;;;;;;;;29.47;28.95;98178.25;5046429;28;19928;-89
2023/06/26 02:00:53;;;;;;;;;;;;;;;29.54;28.86;98190.06;5047548;28;19932;-89
2023/06/26 02:03:20;;;;;;;;;;;;;;;29.54;28.92;98186.44;5051942;28;19917;-88
2023/06/26 02:05:46;;;;;;;;;;;;;;;29.28;29.02;98186.72;5049256;28;20038;-88
2023/06/26 02:08:13;;;;;;;;;;;;;;;29.22;29.08;98187.81;5047807;28;19983;-89
2023/06/26 02:10:39;;;;;;;;;;;;;;;29.27;28.71;98187.16;5052569;28;19921;-89
2023/06/26 02:13:05;;;;;;;;;;;;;;;29.46;28.63;98188.78;5051578;28;20039;-88
2023/06/26 02:15:31;;;;;;;;;;;;;;;29.60;28.55;98182.53;5049343;28;19925;-89
2023/06/26 02:17:57;;;;;;;;;;;;;;;29.65;28.24;98176.25;5052935;28;19927;-89
2023/06/26 02:20:23;;;;;;;;;;;;;;;29.61;28.06;98177.66;5050332;28;20015;-90
2023/06/26 02:22:49;;;;;;;;;;;;;;;29.57;28.34;98182.69;5051992;28;20281;-90
2023/06/26 02:25:17;;;;;;;;;;;;;;;29.32;28.50;98187.34;5051412;28;19968;-90
2023/06/26 02:27:43;;;;;;;;;;;;;;;29.34;28.42;98181.22;5053494;28;19927;-90
2023/06/26 02:30:09;;;;;;;;;;;;;;;29.46;28.40;98179.50;5042734;28;19967;-90
2023/06/26 02:32:35;;;;;;;;;;;;;;;29.65;28.13;98178.28;5036379;28;19949;-90
2023/06/26 02:35:01;;;;;;;;;;;;;;;29.52;27.94;98180.47;5045983;28;19921;-90
2023/06/26 02:37:27;;;;;;;;;;;;;;;29.55;28.07;98185.19;5046953;28;20400;-92
2023/06/26 02:39:55;;;;;;;;;;;;;;;29.43;28.45;98187.69;5038805;28;21328;-92
2023/06/26 02:42:21;;;;;;;;;;;;;;;29.35;28.08;98182.81;5045736;28;19925;-92
2023/06/26 02:44:47;;;;;;;;;;;;;;;29.36;28.41;98190.00;5047877;28;19928;-93
2023/06/26 02:47:13;;;;;;;;;;;;;;;29.43;28.42;98189.72;5051362;28;19929;-92
2023/06/26 02:49:39;;;;;;;;;;;;;;;29.52;28.08;98183.31;5039084;28;19924;-91
2023/06/26 02:52:05;;;;;;;;;;;;;;;29.61;28.09;98184.13;5054471;28;19925;-93
2023/06/26 02:54:32;;;;;;;;;;;;;;;29.52;28.32;98186.13;5051296;28;19943;-93
2023/06/26 02:56:59;;;;;;;;;;;;;;;29.59;28.31;98185.84;5041695;28;19925;-93
2023/06/26 02:59:26;;;;;;;;;;;;;;;29.60;27.92;98184.56;5039949;28;20399;-92
2023/06/26 03:01:52;;;;;;;;;;;;;;;29.59;28.22;98180.19;5050371;28;20015;-92
2023/06/26 03:04:18;;;;;;;;;;;;;;;29.75;27.88;98182.72;5050744;28;19994;-93
2023/06/26 03:06:44;;;;;;;;;;;;;;;29.71;28.01;98182.84;5054648;28;19975;-92
2023/06/26 03:09:10;;;;;;;;;;;;;;;29.66;28.04;98177.84;5052640;28;19948;-92
2023/06/26 03:11:36;;;;;;;;;;;;;;;29.55;28.32;98188.00;5054345;28;19921;-92
2023/06/26 03:14:02;;;;;;;;;;;;;;;29.47;28.12;98179.06;5047728;28;20388;-93
2023/06/26 03:16:28;;;;;;;;;;;;;;;29.52;28.23;98184.09;5048783;28;19925;-93
2023/06/26 03:18:54;;;;;;;;;;;;;;;29.73;27.75;98174.69;5033564;28;20115;-93
2023/06/26 03:21:20;;;;;;;;;;;;;;;29.61;28.06;98183.31;5038022;28;20274;-93
2023/06/26 03:23:46;;;;;;;;;;;;;;;29.46;28.41;98193.66;5036182;28;19921;-93
2023/06/26 03:26:14;;;;;;;;;;;;;;;29.54;28.28;98192.13;5044932;28;19927;-93
2023/06/26 03:28:40;;;;;;;;;;;;;;;29.46;28.79;98185.16;5054845;28;19924;-93
2023/06/26 03:31:06;;;;;;;;;;;;;;;29.73;28.41;98188.84;5054020;28;20018;-93
2023/06/26 03:33:32;;;;;;;;;;;;;;;30.06;28.55;98189.03;5053650;28;19983;-93
2023/06/26 03:35:59;;;;;;;;;;;;;;;30.24;28.40;98183.38;5054888;28;19925;-92
2023/06/26 03:38:25;;;;;;;;;;;;;;;30.56;29.04;98194.03;5054158;28;19987;-92
2023/06/26 03:40:52;;;;;;;;;;;;;;;30.98;29.25;98187.63;5055192;28;20320;-93
2023/06/26 03:43:18;;;;;;;;;;;;;;;31.40;28.94;98182.69;5054837;28;19970;-93
2023/06/26 03:45:44;;;;;;;;;;;;;;;31.83;28.12;98187.03;5054033;28;19920;-92
2023/06/26 03:48:10;;;;;;;;;;;;;;;32.04;28.75;98192.38;5046463;28;19925;-89
2023/06/26 03:50:36;;;;;;;;;;;;;;;32.31;27.91;98193.41;5052788;28;20019;-91
2023/06/26 03:53:02;;;;;;;;;;;;;;;32.40;27.95;98194.13;5039341;28;20035;-90
2023/06/26 03:55:28;;;;;;;;;;;;;;;32.56;27.95;98188.00;5053546;28;19916;-90
2023/06/26 03:57:54;;;;;;;;;;;;;;;32.98;28.25;98189.75;5049486;28;19920;-91
2023/06/26 04:00:20;;;;;;;;;;;;;;;32.98;27.12;98190.50;5047459;28;19925;-90
2023/06/26 04:02:46;;;;;;;;;;;;;;;33.00;27.60;98202.19;5043286;28;20011;-90
2023/06/26 04:05:12;;;;;;;;;;;;;;;33.06;27.99;98199.47;5045459;28;19967;-91
2023/06/26 04:07:38;;;;;;;;;;;;;;;33.23;27.19;98198.47;5049386;28;19960;-90
2023/06/26 04:10:05;;;;;;;;;;;;;;;33.34;28.11;98201.47;5046347;28;19947;-91
2023/06/26 04:12:31;;;;;;;;;;;;;;;33.66;27.70;98201.66;5042860;28;20444;-91
2023/06/26 04:14:57;;;;;;;;;;;;;;;33.84;27.12;98204.28;5047792;28;20027;-91
2023/06/26 04:17:23;;;;;;;;;;;;;;;33.75;26.28;98201.56;5049896;28;20430;-90
2023/06/26 04:19:49;;;;;;;;;;;;;;;33.69;27.44;98201.47;5044137;28;19925;-90
2023/06/26 04:22:15;;;;;;;;;;;;;;;33.65;27.49;98200.13;5047928;28;19913;-89
2023/06/26 04:24:41;;;;;;;;;;;;;;;33.62;28.21;98199.06;5045624;28;19982;-89
2023/06/26 04:27:07;;;;;;;;;;;;;;;33.75;27.34;98196.63;5049070;28;19927;-89
2023/06/26 04:29:33;;;;;;;;;;;;;;;33.75;27.16;98193.78;5040578;28;19953;-90
2023/06/26 04:31:59;;;;;;;;;;;;;;;33.67;26.91;98189.81;5046366;28;19921;-91
2023/06/26 04:34:25;;;;;;;;;;;;;;;33.39;27.51;98200.78;5046795;28;19921;-92
2023/06/26 04:36:51;;;;;;;;;;;;;;;33.34;28.02;98195.78;5046133;28;19939;-91
2023/06/26 04:39:17;;;;;;;;;;;;;;;33.51;28.50;98198.09;5041845;28;19933;-90
2023/06/26 04:41:46;;;;;;;;;;;;;;;33.83;27.94;98197.78;5046997;28;20004;-91
2023/06/26 04:44:12;;;;;;;;;;;;;;;33.97;27.91;98199.00;5051684;28;20427;-91
2023/06/26 04:46:41;;;;;;;;;;;;;;;34.03;28.05;98194.94;5041024;28;20285;-90
2023/06/26 04:49:08;;;;;;;;;;;;;;;33.89;28.07;98198.63;5043448;28;20004;-86
2023/06/26 04:51:40;;;;;;;;;;;;;;;33.93;28.26;98196.38;5043535;28;19921;-91
2023/06/26 04:54:07;;;;;;;;;;;;;;;34.12;28.28;98191.19;5044490;28;20031;-92
2023/06/26 04:56:33;;;;;;;;;;;;;;;34.40;27.55;98195.09;5042004;28;20003;-91
2023/06/26 04:58:59;;;;;;;;;;;;;;;34.75;27.80;98194.97;5044632;28;19952;-90
2023/06/26 05:01:29;;;;;;;;;;;;;;;35.24;27.92;98199.56;5047069;28;19967;-91
2023/06/26 05:03:56;;;;;;;;;;;;;;;35.61;27.19;98199.56;5040821;28;20403;-87
2023/06/26 05:06:22;;;;;;;;;;;;;;;35.97;26.02;98204.41;5036973;28;20008;-91
2023/06/26 05:08:48;;;;;;;;;;;;;;;36.35;26.30;98191.56;5039383;28;20293;-91
2023/06/26 05:11:14;;;;;;;;;;;;;;;36.64;25.41;98185.44;5052796;28;19917;-91
2023/06/26 05:13:40;;;;;;;;;;;;;;;36.79;25.49;98190.88;5054603;28;19960;-92
2023/06/26 05:16:08;;;;;;;;;;;;;;;36.86;26.28;98194.00;5037305;28;20292;-91
2023/06/26 05:18:35;;;;;;;;;;;;;;;37.03;25.65;98194.84;5037845;28;19913;-91
2023/06/26 05:21:01;;;;;;;;;;;;;;;37.15;25.51;98193.53;5053333;28;20369;-92
2023/06/26 05:23:30;;;;;;;;;;;;;;;37.15;25.24;98190.69;5053900;28;19920;-91
2023/06/26 05:25:56;;;;;;;;;;;;;;;37.17;25.54;98188.06;5056862;28;19925;-92
2023/06/26 05:28:24;;;;;;;;;;;;;;;37.32;24.76;98187.75;5057321;28;19948;-92
2023/06/26 05:30:51;;;;;;;;;;;;;;;37.39;24.50;98193.78;5053475;28;19917;-92
2023/06/26 05:33:18;;;;;;;;;;;;;;;37.46;25.45;98194.56;5037385;28;19921;-91
2023/06/26 05:35:45;;;;;;;;;;;;;;;37.50;24.32;98197.94;5040333;28;19921;-91
2023/06/26 05:38:13;;;;;;;;;;;;;;;37.45;24.36;98198.72;5042331;28;20257;-91
2023/06/26 05:40:40;;;;;;;;;;;;;;;37.36;23.09;98194.03;5054783;28;20379;-92
2023/06/26 05:43:06;;;;;;;;;;;;;;;37.28;23.93;98195.84;5056928;28;20347;-92
2023/06/26 05:45:33;;;;;;;;;;;;;;;37.40;24.02;98194.56;5056813;28;20014;-91
2023/06/26 05:47:59;;;;;;;;;;;;;;;37.51;25.81;98202.38;5053327;28;19925;-91
2023/06/26 05:50:25;;;;;;;;;;;;;;;37.51;25.73;98193.78;5056710;28;19921;-91
2023/06/26 05:52:52;;;;;;;;;;;;;;;37.67;24.97;98190.09;5056316;28;20052;-92
2023/06/26 05:55:18;;;;;;;;;;;;;;;37.85;25.41;98183.78;5056713;28;19917;-91
2023/06/26 05:57:45;;;;;;;;;;;;;;;38.03;24.98;98191.78;5055991;28;19921;-89
2023/06/26 06:00:11;;;;;;;;;;;;;;;38.19;25.19;98193.81;5055058;28;19920;-92
2023/06/26 06:02:38;;;;;;;;;;;;;;;38.13;24.57;98193.06;5055223;28;20031;-92
2023/06/26 06:05:05;;;;;;;;;;;;;;;37.96;24.34;98196.00;5052258;28;21888;-91
2023/06/26 06:07:32;;;;;;;;;;;;;;;37.88;24.61;98182.75;5045323;28;19954;-91
2023/06/26 06:09:58;;;;;;;;;;;;;;;37.89;24.57;98190.03;5047673;28;20384;-92
2023/06/26 06:12:24;;;;;;;;;;;;;;;37.92;24.10;98191.84;5055473;28;19927;-91
2023/06/26 06:14:51;;;;;;;;;;;;;;;37.82;24.53;98188.50;5041590;28;19921;-91
2023/06/26 06:17:17;;;;;;;;;;;;;;;37.91;23.09;98193.13;5055893;28;19987;-92
2023/06/26 06:19:44;;;;;;;;;;;;;;;37.89;23.22;98184.28;5056652;28;19923;-91
2023/06/26 06:22:10;;;;;;;;;;;;;;;38.07;22.48;98192.28;5049613;28;19963;-91
2023/06/26 06:24:36;;;;;;;;;;;;;;;38.38;21.79;98188.25;5036514;28;19921;-92
2023/06/26 06:27:03;;;;;;;;;;;;;;;38.59;21.67;98187.34;5054042;28;19921;-92
2023/06/26 06:29:29;;;;;;;;;;;;;;;38.53;21.33;98177.97;5055972;28;19921;-91
2023/06/26 06:31:56;;;;;;;;;;;;;;;38.55;22.45;98186.84;5056029;28;19963;-91
2023/06/26 06:34:23;;;;;;;;;;;;;;;38.35;21.86;98189.31;5047844;28;19953;-90
2023/06/26 06:36:49;;;;;;;;;;;;;;;38.31;20.92;98180.22;5056082;28;19946;-91
2023/06/26 06:39:16;;;;;;;;;;;;;;;38.20;21.87;98178.16;5048841;28;20381;-91
2023/06/26 06:41:42;;;;;;;;;;;;;;;37.80;21.29;98190.28;5055225;28;19952;-91
2023/06/26 06:44:08;;;;;;;;;;;;;;;37.82;21.92;98188.50;5055782;28;19943;-90
2023/06/26 06:46:34;;;;;;;;;;;;;;;37.99;21.45;98182.69;5054198;28;19929;-91
2023/06/26 06:49:00;;;;;;;;;;;;;;;37.90;22.16;98191.59;5055885;28;19925;-90
2023/06/26 06:51:26;;;;;;;;;;;;;;;38.05;22.59;98186.31;5056275;28;19925;-91
2023/06/26 06:53:52;;;;;;;;;;;;;;;38.17;22.39;98190.69;5054626;28;19967;-90
2023/06/26 06:56:18;;;;;;;;;;;;;;;38.18;22.07;98191.47;5047761;28;20297;-91
2023/06/26 06:58:46;;;;;;;;;;;;;;;38.23;21.89;98182.06;5040514;28;19932;-88
2023/06/26 07:01:12;;;;;;;;;;;;;;;37.79;22.62;98178.03;5043415;28;19925;-92
2023/06/26 07:03:38;;;;;;;;;;;;;;;37.52;22.45;98184.66;5049110;28;20334;-91
2023/06/26 07:06:04;;;;;;;;;;;;;;;37.53;21.97;98179.69;5053863;28;19928;-90
2023/06/26 07:08:30;;;;;;;;;;;;;;;37.82;22.09;98181.94;5053067;28;20063;-91
2023/06/26 07:10:56;;;;;;;;;;;;;;;37.90;21.34;98185.88;5054345;28;19925;-90
2023/06/26 07:13:22;;;;;;;;;;;;;;;37.68;21.47;98185.91;5048515;28;19920;-89
2023/06/26 07:15:48;;;;;;;;;;;;;;;37.30;21.66;98182.56;5050846;28;19931;-88
2023/06/26 07:18:15;;;;;;;;;;;;;;;37.88;22.38;98183.50;5054915;28;19921;-90
2023/06/26 07:20:41;;;;;;;;;;;;;;;38.26;21.16;98187.50;5055050;28;20341;-90
2023/06/26 07:23:07;;;;;;;;;;;;;;;38.51;21.19;98180.59;5054685;28;19979;-90
2023/06/26 07:25:34;;;;;;;;;;;;;;;38.27;20.21;98189.09;5055269;28;20373;-89
2023/06/26 07:28:00;;;;;;;;;;;;;;;37.83;20.67;98192.91;5055227;28;19921;-90
2023/06/26 07:30:26;;;;;;;;;;;;;;;36.05;24.93;98194.88;5046576;28;19975;-89
2023/06/26 07:32:52;;;;;;;;;;;;;;;36.86;22.79;98185.44;5035326;28;19949;-90
2023/06/26 07:35:18;;;;;;;;;;;;;;;37.34;21.45;98180.22;5053423;28;20269;-91
2023/06/26 07:37:44;;;;;;;;;;;;;;;37.79;20.85;98177.25;5054855;28;20007;-89
2023/06/26 07:40:10;;;;;;;;;;;;;;;37.93;20.88;98179.84;5053788;28;19924;-90
2023/06/26 07:42:36;;;;;;;;;;;;;;;37.56;21.71;98181.50;5054116;28;20031;-90
2023/06/26 07:45:09;;;;;;;;;;;;;;;37.46;20.46;98185.97;5050295;28;19925;-90
2023/06/26 07:47:36;;;;;;;;;;;;;;;37.56;20.27;98178.63;5044607;28;20293;-90
2023/06/26 07:50:02;;;;;;;;;;;;;;;37.95;19.65;98180.09;5044374;28;20324;-90
2023/06/26 07:52:30;;;;;;;;;;;;;;;37.19;22.37;98182.59;5043446;28;19939;-90
2023/06/26 07:54:56;;;;;;;;;;;;;;;37.21;19.91;98179.97;5053450;28;19917;-90
2023/06/26 07:57:22;;;;;;;;;;;;;;;37.33;20.16;98178.66;5048967;28;20003;-89
2023/06/26 07:59:48;;;;;;;;;;;;;;;37.16;19.42;98183.63;5052875;28;20016;-89
2023/06/26 08:02:14;;;;;;;;;;;;;;;37.36;19.56;98185.44;5053331;28;19964;-89
2023/06/26 08:04:40;;;;;;;;;;;;;;;37.83;19.99;98181.44;5047834;28;19995;-90
2023/06/26 08:07:06;;;;;;;;;;;;;;;38.18;19.40;98177.91;5042917;28;19956;-90
2023/06/26 08:09:32;;;;;;;;;;;;;;;37.93;19.70;98171.25;5054501;28;19916;-90
2023/06/26 08:11:58;;;;;;;;;;;;;;;37.29;20.34;98174.50;5054381;28;19928;-89
2023/06/26 08:14:24;;;;;;;;;;;;;;;37.09;18.96;98169.84;5054327;28;19924;-88
2023/06/26 08:16:50;;;;;;;;;;;;;;;37.28;18.52;98168.00;5054438;28;19916;-90
2023/06/26 08:19:17;;;;;;;;;;;;;;;37.73;18.76;98168.69;5053912;28;20342;-90
2023/06/26 08:21:43;;;;;;;;;;;;;;;37.53;18.88;98171.09;5043167;28;19968;-89
2023/06/26 08:24:10;;;;;;;;;;;;;;;37.65;18.94;98169.75;5048256;28;20407;-90
2023/06/26 08:26:36;;;;;;;;;;;;;;;37.59;19.42;98177.59;5052635;28;19924;-91
2023/06/26 08:29:08;;;;;;;;;;;;;;;37.56;18.81;98161.44;5050039;28;19962;-89
2023/06/26 08:31:34;;;;;;;;;;;;;;;36.94;19.74;98175.06;5052640;28;19920;-88
2023/06/26 08:34:01;;;;;;;;;;;;;;;36.99;19.43;98168.56;5052602;28;20388;-89
2023/06/26 08:36:27;;;;;;;;;;;;;;;36.95;19.23;98168.03;5053780;28;19921;-91
2023/06/26 08:38:53;;;;;;;;;;;;;;;37.32;19.34;98165.63;5046944;28;19925;-88
2023/06/26 08:41:19;;;;;;;;;;;;;;;37.36;19.44;98165.38;5052973;28;20335;-90
2023/06/26 08:43:45;;;;;;;;;;;;;;;37.62;19.37;98171.59;5054032;28;19917;-93
2023/06/26 08:46:11;;;;;;;;;;;;;;;37.83;17.96;98157.75;5052616;28;20406;-91
2023/06/26 08:48:37;;;;;;;;;;;;;;;37.88;17.83;98160.56;5052811;28;19929;-92
2023/06/26 08:51:08;;;;;;;;;;;;;;;38.14;19.43;98160.19;5053935;28;19920;-90
2023/06/26 08:53:34;;;;;;;;;;;;;;;38.22;18.85;98161.19;5053977;28;19917;-91
2023/06/26 08:56:01;;;;;;;;;;;;;;;38.38;18.16;98163.22;5050938;28;19920;-88
2023/06/26 08:58:27;;;;;;;;;;;;;;;37.82;18.41;98156.97;5052933;28;19920;-89
2023/06/26 09:00:55;;;;;;;;;;;;;;;37.49;17.42;98161.97;5051679;28;19921;-88
2023/06/26 09:03:23;;;;;;;;;;;;;;;37.36;18.25;98157.56;5052327;28;20442;-89
2023/06/26 09:05:49;;;;;;;;;;;;;;;37.63;19.26;98158.03;5054760;28;20377;-89
2023/06/26 09:08:15;;;;;;;;;;;;;;;37.18;19.87;98151.63;5052194;28;19921;-89
2023/06/26 09:10:41;;;;;;;;;;;;;;;37.84;18.58;98150.69;5053459;28;19917;-89
2023/06/26 09:13:07;;;;;;;;;;;;;;;38.20;18.96;98151.56;5046167;28;20312;-90
2023/06/26 09:15:42;;;;;;;;;;;;;;;38.56;18.72;98153.94;5051342;28;19921;-90
2023/06/26 09:18:08;;;;;;;;;;;;;;;38.52;17.86;98147.72;5043410;28;19928;-89
2023/06/26 09:20:34;;;;;;;;;;;;;;;38.16;19.58;98148.97;5050815;28;20330;-89
2023/06/26 09:23:01;;;;;;;;;;;;;;;37.83;19.03;98154.88;5052741;28;19940;-89
2023/06/26 09:25:27;;;;;;;;;;;;;;;36.80;19.89;98156.03;5053301;28;19917;-90
2023/06/26 09:27:53;;;;;;;;;;;;;;;36.41;20.26;98155.19;5053615;28;19921;-88
2023/06/26 09:30:19;;;;;;;;;;;;;;;37.85;17.90;98155.13;5052664;28;19924;-88
2023/06/26 09:32:46;;;;;;;;;;;;;;;37.62;17.91;98147.88;5053199;28;19920;-89
2023/06/26 09:35:12;;;;;;;;;;;;;;;37.74;18.93;98158.78;5052701;28;19928;-89
2023/06/26 09:37:38;;;;;;;;;;;;;;;38.34;18.41;98142.66;5053261;28;19917;-90
2023/06/26 09:40:05;;;;;;;;;;;;;;;38.71;17.76;98142.13;5053312;28;19970;-90
2023/06/26 09:42:31;;;;;;;;;;;;;;;39.08;18.30;98135.81;5053579;28;19923;-89
2023/06/26 09:44:57;;;;;;;;;;;;;;;38.44;17.72;98143.84;5051632;28;19928;-89
2023/06/26 09:47:23;;;;;;;;;;;;;;;37.84;17.66;98150.69;5050977;28;19921;-89
2023/06/26 09:49:50;;;;;;;;;;;;;;;37.36;19.47;98143.25;5053343;28;19923;-89
2023/06/26 09:52:16;;;;;;;;;;;;;;;37.93;17.85;98141.78;5039846;28;19928;-89
2023/06/26 09:54:44;;;;;;;;;;;;;;;38.38;18.93;98145.22;5033074;28;20420;-89
2023/06/26 09:57:15;;;;;;;;;;;;;;;38.56;17.77;98141.69;5034155;28;20040;-89
2023/06/26 09:59:42;;;;;;;;;;;;;;;38.96;17.59;98142.97;5054865;28;19921;-88
2023/06/26 10:02:08;;;;;;;;;;;;;;;39.28;16.59;98139.00;5042429;28;19967;-90
2023/06/26 10:04:34;;;;;;;;;;;;;;;39.04;16.60;98136.13;5038842;28;19921;-90
2023/06/26 10:07:22;;;;;;;;;;;;;;;39.22;17.04;98134.66;5037518;28;20412;-89
2023/06/26 10:09:50;;;;;;;;;;;;;;;39.66;18.18;98128.44;5051311;28;20060;-91
2023/06/26 10:12:24;;;;;;;;;;;;;;;39.73;17.63;98130.69;5040257;28;19951;-90
2023/06/26 10:14:51;;;;;;;;;;;;;;;39.87;17.96;98129.47;5036528;28;19929;-90
2023/06/26 10:17:20;;;;;;;;;;;;;;;39.95;18.46;98127.56;5037159;28;19917;-90
2023/06/26 10:19:46;;;;;;;;;;;;;;;40.46;16.56;98119.03;5042076;28;19996;-89
2023/06/26 10:22:15;;;;;;;;;;;;;;;40.47;16.14;98120.59;5040316;28;19936;-87
2023/06/26 10:24:42;;;;;;;;;;;;;;;39.50;16.31;98119.97;5053365;28;19921;-87
2023/06/26 10:27:11;;;;;;;;;;;;;;;39.01;16.79;98117.06;5055767;28;20024;-88
2023/06/26 10:29:37;;;;;;;;;;;;;;;38.73;17.06;98107.94;5053538;28;20292;-88
2023/06/26 10:32:04;;;;;;;;;;;;;;;38.66;16.84;98111.34;5048355;28;20444;-86
2023/06/26 10:34:31;;;;;;;;;;;;;;;38.67;16.66;98107.94;5054687;28;19921;-87
2023/06/26 10:37:04;;;;;;;;;;;;;;;38.94;17.53;98114.00;5041380;28;20419;-87
2023/06/26 10:39:52;;;;;;;;;;;;;;;39.28;17.03;98109.53;5054759;28;19917;-87
2023/06/26 10:42:18;;;;;;;;;;;;;;;39.72;17.46;98109.03;5054305;28;19940;-87
2023/06/26 10:44:46;;;;;;;;;;;;;;;39.85;17.83;98097.63;5052690;28;19933;-87
2023/06/26 10:47:28;;;;;;;;;;;;;;;40.15;17.66;98099.56;5049036;28;19928;-87
2023/06/26 10:49:54;;;;;;;;;;;;;;;40.11;16.78;98094.16;5046976;28;19921;-87
2023/06/26 10:52:20;;;;;;;;;;;;;;;40.41;17.11;98100.50;5048774;28;20004;-88
2023/06/26 10:54:46;;;;;;;;;;;;;;;39.88;17.17;98098.63;5048388;28;19996;-86
2023/06/26 10:57:23;;;;;;;;;;;;;;;39.64;16.34;98096.59;5055300;28;19924;-87
2023/06/26 10:59:49;;;;;;;;;;;;;;;40.12;17.13;98089.19;5054511;28;19924;-87
2023/06/26 11:02:15;;;;;;;;;;;;;;;40.24;17.39;98082.69;5054014;28;19921;-86
2023/06/26 11:04:45;;;;;;;;;;;;;;;39.47;16.79;98093.09;5050466;28;19972;-87
2023/06/26 11:07:14;;;;;;;;;;;;;;;39.80;17.79;98100.56;5039302;28;19921;-87
2023/06/26 11:09:53;;;;;;;;;;;;;;;39.98;17.05;98085.44;5044765;28;20008;-86
2023/06/26 11:12:38;;;;;;;;;;;;;;;39.48;17.77;98094.66;5049251;28;19917;-89
2023/06/26 11:15:07;;;;;;;;;;;;;;;39.41;17.01;98092.38;5054599;28;19932;-89
2023/06/26 11:17:34;;;;;;;;;;;;;;;39.42;17.42;98090.31;5054521;28;19920;-89
2023/06/26 11:20:00;;;;;;;;;;;;;;;40.19;18.02;98089.31;5054096;28;19923;-90
2023/06/26 11:22:26;;;;;;;;;;;;;;;39.67;17.63;98084.00;5055533;28;20269;-89
2023/06/26 11:24:53;;;;;;;;;;;;;;;39.75;17.11;98095.66;5053910;28;19916;-90
2023/06/26 11:27:23;;;;;;;;;;;;;;;40.37;16.54;98082.78;5054633;28;19921;-90
2023/06/26 11:29:52;;;;;;;;;;;;;;;40.72;15.75;98084.56;5054909;28;20010;-90
2023/06/26 11:32:18;;;;;;;;;;;;;;;40.44;17.12;98081.38;5053736;28;20266;-90
2023/06/26 11:34:44;;;;;;;;;;;;;;;40.72;15.72;98087.44;5051065;28;19921;-89
2023/06/26 11:37:11;;;;;;;;;;;;;;;40.16;17.41;98078.91;5036851;28;19925;-89
2023/06/26 11:39:37;;;;;;;;;;;;;;;40.01;16.87;98090.88;5054484;28;20391;-89
2023/06/26 11:42:04;;;;;;;;;;;;;;;38.29;18.56;98083.22;5051700;28;19916;-89
2023/06/26 11:44:31;;;;;;;;;;;;;;;38.76;18.16;98081.03;5052021;28;19931;-89
2023/06/26 11:46:57;;;;;;;;;;;;;;;38.90;17.25;98085.59;5045509;28;20299;-89
2023/06/26 11:49:25;;;;;;;;;;;;;;;38.85;17.46;98083.56;5054965;28;20396;-89
2023/06/26 11:51:52;;;;;;;;;;;;;;;39.21;17.28;98081.41;5045814;28;19928;-90
2023/06/26 11:54:23;;;;;;;;;;;;;;;40.07;16.19;98081.41;5041345;28;19921;-89
2023/06/26 11:56:58;;;;;;;;;;;;;;;39.78;16.28;98077.31;5034641;28;19921;-89
2023/06/26 11:59:31;;;;;;;;;;;;;;;39.31;17.25;98079.69;5041706;28;20369;-88
2023/06/26 12:01:57;;;;;;;;;;;;;;;38.84;17.65;98073.38;5048383;28;20024;-89
2023/06/26 12:04:23;;;;;;;;;;;;;;;38.76;17.38;98074.50;5051360;28;20011;-88
2023/06/26 12:06:50;;;;;;;;;;;;;;;39.35;18.06;98083.06;5046846;28;20039;-86
2023/06/26 12:09:18;;;;;;;;;;;;;;;40.12;16.21;98058.28;5042203;28;19924;-87
2023/06/26 12:11:44;;;;;;;;;;;;;;;39.71;16.70;98066.44;5052660;28;20333;-87
2023/06/26 12:14:11;;;;;;;;;;;;;;;39.57;18.87;98067.63;5047385;28;19924;-86
2023/06/26 12:16:39;;;;;;;;;;;;;;;40.13;17.75;98050.44;5046255;28;19925;-87
2023/06/26 12:19:06;;;;;;;;;;;;;;;40.46;17.02;98058.56;5045171;28;19964;-86
2023/06/26 12:21:38;;;;;;;;;;;;;;;40.44;17.03;98055.47;5043334;28;20377;-86
2023/06/26 12:24:05;;;;;;;;;;;;;;;40.67;16.84;98048.78;5044527;28;20404;-87
2023/06/26 12:26:36;;;;;;;;;;;;;;;40.23;15.93;98049.50;5037045;28;19921;-84
2023/06/26 12:29:03;;;;;;;;;;;;;;;39.31;17.52;98054.63;5047406;28;19921;-86
2023/06/26 12:31:29;;;;;;;;;;;;;;;39.31;18.56;98056.72;5039832;28;19921;-85
2023/06/26 12:33:55;;;;;;;;;;;;;;;37.53;19.21;98045.03;5047510;28;19921;-84
2023/06/26 12:36:21;;;;;;;;;;;;;;;37.26;20.74;98053.16;5045051;28;20296;-85
2023/06/26 12:38:48;;;;;;;;;;;;;;;37.53;20.12;98047.91;5043308;28;20003;-85
2023/06/26 12:41:14;;;;;;;;;;;;;;;38.10;19.23;98047.06;5043032;28;19920;-85
2023/06/26 12:43:41;;;;;;;;;;;;;;;38.07;19.20;98048.16;5043869;28;19928;-85
2023/06/26 12:46:07;;;;;;;;;;;;;;;38.01;18.83;98043.22;5045062;28;19929;-87